createdAt,value
2017-10-20T00:06:28.603Z,1004.5
2017-10-20T00:16:42.699Z,1004.4
2017-10-20T00:26:57.607Z,1004.3
2017-10-20T00:37:11.457Z,1004.4
2017-10-20T00:47:25.522Z,1004.6
2017-10-20T00:57:40.449Z,1004.7
2017-10-20T01:07:51.936Z,1004.5
2017-10-20T01:18:04.729Z,1004.1
2017-10-20T01:28:18.899Z,1004.5
2017-10-20T01:38:32.736Z,1004.5
2017-10-20T01:48:47.031Z,1004.4
2017-10-20T01:59:01.684Z,1004.4
2017-10-20T02:09:15.912Z,1004.3
2017-10-20T02:19:29.903Z,1004.3
2017-10-20T02:29:44.213Z,1003.8
2017-10-20T02:39:58.259Z,1003.8
2017-10-20T02:50:12.568Z,1004.1
2017-10-20T03:00:26.852Z,1003.9
2017-10-20T03:10:41.219Z,1004.1
2017-10-20T03:20:55.399Z,1003.8
2017-10-20T03:31:09.983Z,1003.5
2017-10-20T03:41:24.018Z,1003.4
2017-10-20T03:51:38.295Z,1003.4
2017-10-20T04:01:53.796Z,1003.3
2017-10-20T04:12:07.809Z,1003.2
2017-10-20T04:22:22.068Z,1003.3
2017-10-20T04:32:36.480Z,1003.2
2017-10-20T04:42:50.834Z,1003.3
2017-10-20T04:53:02.606Z,1003.4
2017-10-20T05:04:23.917Z,1003.2
2017-10-20T05:14:37.480Z,1003.2
2017-10-20T05:25:22.341Z,1003.2
2017-10-20T05:36:07.454Z,1003.3
2017-10-20T05:46:20.954Z,1003.5
2017-10-20T05:57:05.825Z,1003.6
2017-10-20T06:07:20.777Z,1003.4
2017-10-20T06:17:34.200Z,1003.1
2017-10-20T06:27:48.797Z,1003.2
2017-10-20T06:38:02.718Z,1003.0
2017-10-20T06:48:14.009Z,1003.3
2017-10-20T06:58:28.040Z,1003.3
2017-10-20T07:08:42.254Z,1003.3
2017-10-20T07:18:57.250Z,1003.1
2017-10-20T07:29:10.774Z,1003.3
2017-10-20T07:39:25.666Z,1003.3
2017-10-20T07:49:39.150Z,1003.2
2017-10-20T07:59:52.609Z,1003.3
2017-10-20T08:10:06.928Z,1003.3
2017-10-20T08:20:21.079Z,1003.5
2017-10-20T08:30:35.212Z,1003.6
2017-10-20T08:40:49.228Z,1003.6
2017-10-20T08:51:02.807Z,1003.4
2017-10-20T09:01:16.898Z,1003.4
2017-10-20T09:11:31.111Z,1003.5
2017-10-20T09:21:45.390Z,1003.4
2017-10-20T09:31:59.600Z,1003.6
2017-10-20T09:42:13.829Z,1003.5
2017-10-20T09:52:27.945Z,1003.5
2017-10-20T10:02:39.265Z,1003.5
2017-10-20T10:12:53.520Z,1003.9
2017-10-20T10:23:07.679Z,1003.8
2017-10-20T10:33:22.020Z,1003.6
2017-10-20T10:43:36.115Z,1003.3
2017-10-20T10:53:50.280Z,1003.8
2017-10-20T11:04:04.568Z,1003.7
2017-10-20T11:14:19.289Z,1003.6
2017-10-20T11:24:32.907Z,1003.5
2017-10-20T11:34:47.431Z,1003.4
2017-10-20T11:45:01.449Z,1003.6
2017-10-20T11:55:15.808Z,1003.6
2017-10-20T12:05:32.950Z,1003.3
2017-10-20T12:15:48.206Z,1003.4
2017-10-20T12:26:00.014Z,1003.6
2017-10-20T12:36:44.487Z,1003.6
2017-10-20T12:47:17.113Z,1003.8
2017-10-20T12:57:30.796Z,1003.8
2017-10-20T13:08:18.507Z,1004.1
2017-10-20T13:18:32.914Z,1004.3
2017-10-20T13:28:48.156Z,1004.3
2017-10-20T13:39:02.863Z,1004.4
2017-10-20T13:49:48.071Z,1004.5
2017-10-20T14:00:33.949Z,1004.8
2017-10-20T14:10:47.954Z,1004.9
2017-10-20T14:21:02.022Z,1004.9
2017-10-20T14:31:16.645Z,1005.1
2017-10-20T14:41:30.733Z,1005.1
2017-10-20T14:51:43.055Z,1005.0
2017-10-20T15:01:57.074Z,1005.1
2017-10-20T15:12:11.421Z,1005.2
2017-10-20T15:22:25.568Z,1005.2
2017-10-20T15:32:39.639Z,1005.5
2017-10-20T15:42:54.558Z,1005.4
2017-10-20T15:53:08.376Z,1005.5
2017-10-20T16:03:22.507Z,1005.5
2017-10-20T16:13:36.693Z,1005.5
2017-10-20T16:23:51.205Z,1005.6
2017-10-20T16:34:05.261Z,1005.8
2017-10-20T16:44:19.298Z,1005.8
2017-10-20T16:54:34.318Z,1005.9
2017-10-20T17:04:48.781Z,1006.2
2017-10-20T17:15:02.777Z,1006.4
2017-10-20T17:25:14.147Z,1006.5
2017-10-20T17:35:28.572Z,1006.5
2017-10-20T17:45:41.244Z,1006.6
2017-10-20T17:55:54.896Z,1006.6
2017-10-20T18:06:09.037Z,1006.6
2017-10-20T18:16:53.938Z,1006.6
2017-10-20T18:27:09.584Z,1006.7
2017-10-20T18:37:21.467Z,1006.7
2017-10-20T18:47:36.068Z,1006.7
2017-10-20T18:57:53.999Z,1006.6
2017-10-20T19:08:09.216Z,1006.8
2017-10-20T19:18:23.706Z,1006.9
2017-10-20T19:28:35.979Z,1007.0
2017-10-20T19:38:53.239Z,1007.1
2017-10-20T19:49:09.670Z,1007.1
2017-10-20T19:59:27.188Z,1007.3
2017-10-20T20:09:45.654Z,1007.4
2017-10-20T20:20:04.389Z,1007.4
2017-10-20T20:30:20.328Z,1007.6
2017-10-20T20:40:36.545Z,1007.5
2017-10-20T20:50:52.624Z,1007.6
2017-10-20T21:01:38.339Z,1007.5
2017-10-20T21:11:51.403Z,1007.6
2017-10-20T21:22:02.854Z,1007.6
2017-10-20T21:32:16.827Z,1007.6
2017-10-20T21:43:01.647Z,1007.7
2017-10-20T21:54:38.002Z,1007.8
2017-10-20T22:05:22.870Z,1007.9
2017-10-20T22:15:37.240Z,1008.0
2017-10-20T22:25:51.359Z,1008.0
2017-10-20T22:36:06.437Z,1008.1
2017-10-20T22:46:21.315Z,1008.2
2017-10-20T22:56:34.985Z,1008.2
2017-10-20T23:06:49.196Z,1008.2
2017-10-20T23:17:00.570Z,1008.2
2017-10-20T23:27:15.971Z,1008.3
2017-10-20T23:37:29.826Z,1008.2
2017-10-20T23:47:45.049Z,1008.2
2017-10-20T23:57:59.391Z,1008.3
